map of REG home
REG - Airport
Location
City:  Reggio di Calabria, Calabria, Italy
Name:Reggio Calabria Tito Minniti Airport
ICAO:LICR
IATA:REG

Details
Type:Airport (Aerodrome, Airfield)
Use:Public/Civil
Latitude:3804'16"N (38.071206)
Longitude:1539'06"E (15.651556)
Datum:WGS 1984
Elevation:96 ft (29 m)
Variation:3.30E (WMM2015 magnetic declination)
0.10 annual change
Runways:2
Longest:6549 × 148 ft (1996 × 45 m), paved

Time
Time Zone:UTC+1 (DST+2)
Local Time:

Weather
METAR:LICR 221250Z 35014KT CAVOK 31/16 Q1017
TAF:LICR 221100Z 2212/2312 36014KT CAVOK
BECMG 2216/2218 VRB04KT
BECMG 2220/2222 01014KT

Related Locations
Nearby:
Farthest:CHT: 11692 mi / 18817 km
Waitangi [Tuuta], CIT, NZ

Find:

   beyond  
but within

Other Information
Maps:
NOTAMs:
Links:
Sources:

  
flag of Italy
flag of Calabria
  

Sectional Chart

Flight Planning
at skyvector.com

Satellite Image

Google Maps Satellite view

 

Copyright © 2004-2017 Karl L. Swartz. All rights reserved.
The Great Circle Mapper name and logo are trademarks of the Great Circle Mapper.
All other trademarks mentioned herein belong to their respective owners.
Please see credits for attibutions and further copyright information.

  Follow gcmap on Facebook Follow gcmap on Twitter Follow gcmap on Google+ GCmap on LinkedIn

hCard Microformat

Geo Microformat